KFOT

Rohnerville Airport

Fortuna, California, USA
METAR KFOT 191955Z AUTO 29006KT 10SM OVC008 12/09 A3020 RMK AO1
Observed Flight Rules
Oct-19 @ 19:55 UTC (31 minutes ago) Instrument Flight Rules
Wind Visibility Clouds
290° at 6 knots 10 miles
  • Overcast at 800' AGL
Temperatures Readings
Current 12°C / 54°F
Dewpoint 9°C / 48°F
Humidity 82%
Altimeter 30.2" Hg
Pressure 1023 hPa
Elevation 120
METAR KFOT 191955Z AUTO 29006KT 10SM OVC008 12/09 A3020 RMK AO1
Observed Flight Rules
Oct-19 @ 19:55 UTC
(31 minutes ago)
IFR
Wind Visibility
290° at 6 knots 10 miles
Clouds
  • Overcast at 800' AGL
Temperature Dewpoint
12°C / 54°F 9°C / 48°F
Humidity Altimeter Pressure
82% 30.2" Hg 1023 hPa